Time;durP1;ratioP1;P1;durP2;ratioP2;P2;SDS_P1;SDS_P2;PMS_P1;PMS_P2;Temp;Humidity;BMP_temperature;BMP_pressure;BME280_temperature;BME280_humidity;BME280_pressure;Samples;Min_cycle;Max_cycle;Signal;HPM_P1;HPM_P2
2023/10/27 00:01:05;;;;;;;88.15;78.78;;;17.70;1.00;;;;;;5070479;28;20390;-63
2023/10/27 00:03:31;;;;;;;85.90;76.75;;;17.40;1.00;;;;;;5069821;28;20047;-62
2023/10/27 00:05:57;;;;;;;90.28;80.75;;;17.90;1.00;;;;;;5084542;28;20113;-63
2023/10/27 00:08:22;;;;;;;87.70;78.50;;;17.40;1.00;;;;;;5065599;28;20068;-68
2023/10/27 00:10:48;;;;;;;89.57;79.88;;;17.80;1.00;;;;;;5059171;28;20240;-68
2023/10/27 00:13:14;;;;;;;84.97;75.93;;;17.50;1.00;;;;;;5070069;28;20495;-67
2023/10/27 00:15:39;;;;;;;91.88;82.18;;;17.50;1.00;;;;;;5069738;28;20040;-67
2023/10/27 00:18:05;;;;;;;86.63;77.38;;;17.90;1.00;;;;;;5069687;28;20490;-68
2023/10/27 00:20:31;;;;;;;86.63;77.22;;;17.50;1.00;;;;;;5069717;28;20084;-69
2023/10/27 00:22:56;;;;;;;89.93;80.63;;;17.80;1.00;;;;;;5069652;28;20126;-68
2023/10/27 00:25:23;;;;;;;90.60;80.80;;;17.40;1.00;;;;;;5070409;28;20048;-68
2023/10/27 00:27:49;;;;;;;90.75;80.90;;;17.60;1.00;;;;;;5069338;28;20486;-68
2023/10/27 00:30:15;;;;;;;92.03;81.90;;;17.50;1.00;;;;;;5069931;28;20044;-68
2023/10/27 00:32:41;;;;;;;90.88;81.07;;;17.50;1.00;;;;;;5069203;28;20047;-69
2023/10/27 00:35:06;;;;;;;89.95;80.55;;;17.90;1.00;;;;;;5069153;28;20044;-68
2023/10/27 00:37:33;;;;;;;90.30;80.88;;;17.90;1.00;;;;;;5068924;28;20045;-68
2023/10/27 00:39:59;;;;;;;95.28;83.55;;;17.50;1.00;;;;;;5069637;28;20090;-68
2023/10/27 00:42:25;;;;;;;93.20;83.18;;;17.60;1.00;;;;;;5069735;28;20050;-67
2023/10/27 00:44:51;;;;;;;95.65;82.03;;;17.40;1.00;;;;;;5068795;28;20518;-68
2023/10/27 00:47:17;;;;;;;94.65;83.95;;;17.70;1.00;;;;;;5069366;28;20143;-68
2023/10/27 00:49:43;;;;;;;102.40;88.68;;;17.80;1.00;;;;;;5069454;28;20048;-68
2023/10/27 00:52:10;;;;;;;91.30;81.45;;;17.50;1.00;;;;;;5068858;28;20509;-68
2023/10/27 00:54:36;;;;;;;91.88;81.75;;;17.90;61.70;;;;;;5069078;28;20040;-68
2023/10/27 00:57:02;;;;;;;93.65;83.55;;;17.60;99.90;;;;;;5068727;28;20090;-67
2023/10/27 00:59:28;;;;;;;95.50;84.70;;;17.50;99.90;;;;;;5069197;28;20037;-68
2023/10/27 01:01:53;;;;;;;92.45;82.25;;;17.80;99.90;;;;;;5067319;28;20482;-68
2023/10/27 01:04:19;;;;;;;93.45;83.32;;;17.40;99.90;;;;;;5068841;28;20086;-68
2023/10/27 01:06:45;;;;;;;95.68;84.57;;;17.40;99.90;;;;;;5067951;28;20044;-68
2023/10/27 01:09:11;;;;;;;100.40;85.22;;;17.40;99.90;;;;;;5059502;28;20447;-69
2023/10/27 01:11:38;;;;;;;93.60;82.78;;;17.50;99.90;;;;;;5069030;28;20368;-68
2023/10/27 01:14:03;;;;;;;101.43;86.22;;;17.80;99.90;;;;;;5068541;28;20052;-68
2023/10/27 01:16:29;;;;;;;94.47;84.20;;;17.80;99.90;;;;;;5068274;28;20036;-69
2023/10/27 01:18:55;;;;;;;90.88;80.90;;;17.60;99.90;;;;;;5067960;28;20153;-62
2023/10/27 01:21:20;;;;;;;99.60;84.75;;;17.30;1.00;;;;;;5068353;28;20048;-62
2023/10/27 01:23:46;;;;;;;99.38;84.15;;;17.90;1.00;;;;;;5068728;28;20052;-61
2023/10/27 01:26:11;;;;;;;100.00;85.20;;;17.70;1.00;;;;;;5067980;28;20044;-62
2023/10/27 01:28:37;;;;;;;98.60;85.15;;;17.50;1.00;;;;;;5068963;28;20040;-63
2023/10/27 01:31:03;;;;;;;95.70;83.18;;;17.30;20.70;;;;;;5068239;28;20044;-62
2023/10/27 01:33:28;;;;;;;105.28;85.53;;;17.50;18.30;;;;;;5068099;28;20040;-63
2023/10/27 01:35:54;;;;;;;98.03;86.25;;;17.70;22.90;;;;;;5068507;28;20052;-61
2023/10/27 01:38:20;;;;;;;107.32;85.90;;;17.30;90.10;;;;;;5068856;28;20040;-63
2023/10/27 01:40:46;;;;;;;98.53;87.18;;;17.20;99.90;;;;;;5067889;28;20078;-63
2023/10/27 01:43:11;;;;;;;95.07;83.88;;;17.50;99.90;;;;;;5067713;28;20040;-63
2023/10/27 01:45:37;;;;;;;96.80;83.28;;;17.50;99.90;;;;;;5068865;28;20092;-62
2023/10/27 01:48:03;;;;;;;100.78;83.97;;;17.50;99.90;;;;;;5067394;28;20044;-62
2023/10/27 01:50:28;;;;;;;97.88;83.32;;;17.70;99.90;;;;;;5068555;28;20040;-62
2023/10/27 01:52:54;;;;;;;96.78;80.07;;;17.30;99.90;;;;;;5067543;28;20064;-62
2023/10/27 01:55:19;;;;;;;91.20;81.00;;;17.60;99.90;;;;;;5083054;28;20055;-62
2023/10/27 01:57:45;;;;;;;113.43;88.80;;;17.10;99.90;;;;;;5067355;28;20044;-63
2023/10/27 02:00:11;;;;;;;104.63;85.70;;;17.40;1.00;;;;;;5068330;28;20793;-63
2023/10/27 02:02:37;;;;;;;96.00;84.50;;;17.50;1.00;;;;;;5067765;28;20037;-62
2023/10/27 02:05:04;;;;;;;96.13;81.95;;;17.40;1.00;;;;;;5068300;28;20040;-61
2023/10/27 02:07:29;;;;;;;93.80;81.95;;;17.20;17.00;;;;;;5059761;28;20491;-63
2023/10/27 02:09:59;;;;;;;100.75;83.97;;;17.60;16.90;;;;;;5065743;28;20370;-62
2023/10/27 02:12:28;;;;;;;107.00;85.72;;;17.10;37.60;;;;;;5067144;28;20119;-63
2023/10/27 02:14:53;;;;;;;104.28;83.32;;;17.20;51.80;;;;;;5067898;28;20101;-62
2023/10/27 02:17:19;;;;;;;104.15;87.95;;;17.60;89.70;;;;;;5066644;28;20040;-62
2023/10/27 02:19:45;;;;;;;109.07;88.32;;;17.70;99.90;;;;;;5065425;28;20164;-62
2023/10/27 02:22:10;;;;;;;108.68;86.60;;;17.40;99.90;;;;;;5067417;28;20564;-63
2023/10/27 02:24:40;;;;;;;94.68;82.30;;;17.70;99.90;;;;;;5067269;28;20051;-62
2023/10/27 02:27:06;;;;;;;104.88;83.65;;;17.90;1.00;;;;;;5066277;28;20102;-63
2023/10/27 02:29:32;;;;;;;102.85;83.68;;;17.70;1.00;;;;;;5065871;28;20044;-62
2023/10/27 02:31:57;;;;;;;104.43;81.75;;;17.40;1.00;;;;;;5067517;28;20115;-63
2023/10/27 02:34:23;;;;;;;98.95;81.25;;;17.70;1.00;;;;;;5067383;28;20044;-63
2023/10/27 02:36:49;;;;;;;100.70;82.10;;;17.80;1.00;;;;;;5067476;28;20044;-62
2023/10/27 02:39:14;;;;;;;96.38;79.68;;;17.80;1.00;;;;;;5067752;28;20667;-62
2023/10/27 02:41:40;;;;;;;88.72;79.03;;;17.30;1.00;;;;;;5066914;28;20403;-63
2023/10/27 02:44:06;;;;;;;96.13;78.75;;;17.90;1.00;;;;;;5067040;28;20570;-62
2023/10/27 02:46:35;;;;;;;96.22;74.15;;;17.80;1.00;;;;;;5066857;28;20044;-62
2023/10/27 02:49:05;;;;;;;94.50;77.50;;;18.30;13.70;;;;;;5067103;28;20047;-62
2023/10/27 02:51:31;;;;;;;90.45;74.72;;;17.30;7.80;;;;;;5066486;28;20071;-62
2023/10/27 02:53:57;;;;;;;90.72;76.13;;;17.50;1.00;;;;;;5066639;28;20040;-63
2023/10/27 02:56:23;;;;;;;88.13;78.43;;;17.40;7.50;;;;;;5067181;28;20036;-62
2023/10/27 02:58:50;;;;;;;87.00;74.03;;;17.50;45.10;;;;;;5067035;28;20520;-62
2023/10/27 03:01:15;;;;;;;83.65;74.47;;;17.60;87.00;;;;;;5066765;28;20060;-63
2023/10/27 03:03:45;;;;;;;83.18;74.18;;;17.40;99.90;;;;;;5066762;28;20037;-62
2023/10/27 03:06:11;;;;;;;82.78;71.72;;;17.90;99.90;;;;;;5066680;28;20557;-61
2023/10/27 03:08:38;;;;;;;74.57;66.63;;;17.70;99.90;;;;;;5067209;28;20075;-62
2023/10/27 03:11:04;;;;;;;79.13;70.63;;;17.40;99.90;;;;;;5065785;28;20052;-62
2023/10/27 03:13:31;;;;;;;76.75;68.63;;;17.90;99.90;;;;;;5066491;28;20076;-62
2023/10/27 03:15:58;;;;;;;75.97;67.97;;;17.40;99.90;;;;;;5065776;28;20482;-62
2023/10/27 03:18:24;;;;;;;74.97;67.15;;;17.90;99.90;;;;;;5066722;28;20044;-63
2023/10/27 03:20:57;;;;;;;71.40;64.07;;;17.90;99.90;;;;;;5066546;28;20052;-63
2023/10/27 03:23:23;;;;;;;75.45;67.60;;;17.50;99.90;;;;;;5066200;28;20036;-62
2023/10/27 03:25:49;;;;;;;72.47;65.03;;;17.70;58.50;;;;;;5065700;28;20050;-62
2023/10/27 03:28:15;;;;;;;71.45;63.97;;;17.90;55.40;;;;;;5066927;28;20052;-63
2023/10/27 03:30:42;;;;;;;70.38;62.78;;;17.90;27.70;;;;;;5070743;28;20041;-62
2023/10/27 03:33:08;;;;;;;72.25;64.80;;;17.50;1.00;;;;;;5070804;28;20036;-62
2023/10/27 03:35:34;;;;;;;73.55;65.90;;;17.80;1.00;;;;;;5070889;28;20078;-63
2023/10/27 03:38:00;;;;;;;75.63;67.50;;;17.40;1.90;;;;;;5068922;28;20512;-67
2023/10/27 03:40:25;;;;;;;76.07;67.93;;;17.70;27.80;;;;;;5070558;28;20068;-62
2023/10/27 03:42:51;;;;;;;70.38;63.05;;;17.50;56.20;;;;;;5070553;28;20115;-63
2023/10/27 03:45:16;;;;;;;73.72;65.80;;;17.40;65.50;;;;;;5070447;28;20063;-62
2023/10/27 03:47:42;;;;;;;72.60;64.68;;;17.90;48.40;;;;;;5070338;28;20043;-62
2023/10/27 03:50:08;;;;;;;74.43;66.32;;;17.50;18.20;;;;;;5070145;28;20029;-62
2023/10/27 03:52:33;;;;;;;77.45;69.22;;;17.50;17.70;;;;;;5070557;28;20079;-62
2023/10/27 03:54:59;;;;;;;73.30;65.32;;;17.40;23.50;;;;;;5070068;28;20126;-61
2023/10/27 03:57:24;;;;;;;74.22;66.25;;;17.80;45.40;;;;;;5069945;28;20040;-63
2023/10/27 03:59:50;;;;;;;73.82;66.18;;;18.10;60.00;;;;;;5070366;28;20044;-63
2023/10/27 04:02:16;;;;;;;72.45;64.55;;;17.80;85.50;;;;;;5069416;28;20068;-63
2023/10/27 04:04:42;;;;;;;74.43;65.18;;;17.60;94.00;;;;;;5069640;28;20040;-63
2023/10/27 04:07:07;;;;;;;73.90;65.80;;;17.80;67.70;;;;;;5067955;28;20558;-63
2023/10/27 04:09:33;;;;;;;77.25;67.30;;;17.90;50.90;;;;;;5068931;28;20109;-61
2023/10/27 04:11:59;;;;;;;77.22;69.03;;;17.50;28.80;;;;;;5068950;28;20123;-62
2023/10/27 04:14:25;;;;;;;74.28;66.50;;;17.70;13.60;;;;;;5067285;28;20519;-62
2023/10/27 04:16:50;;;;;;;73.28;65.65;;;17.80;14.10;;;;;;5069739;28;20130;-63
2023/10/27 04:19:16;;;;;;;75.10;67.25;;;17.90;7.70;;;;;;5067320;28;20144;-62
2023/10/27 04:21:42;;;;;;;72.65;65.15;;;18.00;8.70;;;;;;5068993;28;20087;-63
2023/10/27 04:24:07;;;;;;;70.03;62.55;;;18.00;1.00;;;;;;5069792;28;20097;-62
2023/10/27 04:26:33;;;;;;;69.43;61.80;;;17.60;1.00;;;;;;5069742;28;20118;-63
2023/10/27 04:28:58;;;;;;;68.03;60.80;;;17.90;1.00;;;;;;5069555;28;20072;-63
2023/10/27 04:31:25;;;;;;;69.90;62.67;;;17.90;1.00;;;;;;5069059;28;20048;-62
2023/10/27 04:33:51;;;;;;;69.78;62.40;;;17.50;1.00;;;;;;5084995;28;20087;-62
2023/10/27 04:36:16;;;;;;;68.95;61.58;;;17.60;1.00;;;;;;5069378;28;20072;-62
2023/10/27 04:38:45;;;;;;;70.70;63.20;;;18.10;1.00;;;;;;5069473;28;20162;-61
2023/10/27 04:41:10;;;;;;;73.22;65.15;;;17.90;1.00;;;;;;5068298;28;20094;-63
2023/10/27 04:43:36;;;;;;;70.85;63.53;;;17.80;1.00;;;;;;5069260;28;20036;-62
2023/10/27 04:46:02;;;;;;;70.13;60.58;;;17.90;1.00;;;;;;5069050;28;20041;-63
2023/10/27 04:48:27;;;;;;;66.97;59.85;;;17.90;99.90;;;;;;5068174;28;20532;-61
2023/10/27 04:50:56;;;;;;;69.93;60.20;;;17.90;99.90;;;;;;5069665;28;20129;-63
2023/10/27 04:53:22;;;;;;;71.32;64.00;;;18.00;99.90;;;;;;5069014;28;20094;-64
2023/10/27 04:55:47;;;;;;;71.53;63.72;;;17.70;99.90;;;;;;5068970;28;20048;-62
2023/10/27 04:58:13;;;;;;;68.00;60.85;;;18.00;99.90;;;;;;5068692;28;20123;-62
2023/10/27 05:00:38;;;;;;;67.93;60.95;;;17.80;99.90;;;;;;5069286;28;20036;-62
2023/10/27 05:03:05;;;;;;;66.20;59.33;;;18.10;99.90;;;;;;5068902;28;20041;-61
2023/10/27 05:05:30;;;;;;;68.18;61.05;;;17.70;99.90;;;;;;5069472;28;20056;-62
2023/10/27 05:07:56;;;;;;;65.40;58.65;;;17.50;99.90;;;;;;5068677;28;20055;-62
2023/10/27 05:10:22;;;;;;;66.22;59.03;;;17.60;18.50;;;;;;5069018;28;20052;-63
2023/10/27 05:12:48;;;;;;;68.15;61.10;;;17.90;1.00;;;;;;5066775;28;20045;-62
2023/10/27 05:15:14;;;;;;;66.65;59.88;;;17.50;1.00;;;;;;5068993;28;20048;-62
2023/10/27 05:17:40;;;;;;;64.68;57.97;;;17.90;1.00;;;;;;5069005;28;20048;-63
2023/10/27 05:20:06;;;;;;;66.07;59.08;;;17.60;1.00;;;;;;5068597;28;20062;-63
2023/10/27 05:22:31;;;;;;;64.25;57.65;;;17.90;1.00;;;;;;5068803;28;20047;-63
2023/10/27 05:25:06;;;;;;;65.30;58.38;;;17.70;1.00;;;;;;5068893;28;20040;-63
2023/10/27 05:27:33;;;;;;;65.55;58.50;;;17.90;99.90;;;;;;5068376;28;20036;-62
2023/10/27 05:29:59;;;;;;;64.45;57.78;;;17.70;99.90;;;;;;5068466;28;20483;-63
2023/10/27 05:32:25;;;;;;;63.80;56.97;;;17.90;99.90;;;;;;5067983;28;20098;-62
2023/10/27 05:34:50;;;;;;;64.75;57.95;;;17.90;99.90;;;;;;5068728;28;20080;-62
2023/10/27 05:37:16;;;;;;;66.03;59.20;;;17.60;99.90;;;;;;5064389;28;20070;-62
2023/10/27 05:39:41;;;;;;;63.80;57.40;;;17.90;99.90;;;;;;5066858;28;20094;-63
2023/10/27 05:42:08;;;;;;;65.10;58.30;;;18.00;99.90;;;;;;5067916;28;20443;-61
2023/10/27 05:44:34;;;;;;;63.78;57.28;;;17.90;99.90;;;;;;5068050;28;20040;-62
2023/10/27 05:47:01;;;;;;;63.20;56.83;;;17.60;99.90;;;;;;5066138;28;20119;-63
2023/10/27 05:49:27;;;;;;;62.17;55.72;;;17.80;99.90;;;;;;5065729;28;20541;-63
2023/10/27 05:51:53;;;;;;;61.00;54.63;;;17.60;99.90;;;;;;5066042;28;20046;-63
2023/10/27 05:54:19;;;;;;;62.20;54.60;;;17.60;89.70;;;;;;5065606;28;20510;-63
2023/10/27 05:56:44;;;;;;;60.00;53.70;;;17.90;53.10;;;;;;5065186;28;20044;-62
2023/10/27 05:59:10;;;;;;;58.83;52.80;;;17.90;1.00;;;;;;5067141;28;20043;-62
2023/10/27 06:01:35;;;;;;;59.30;53.28;;;17.60;1.00;;;;;;5061380;28;20032;-63
2023/10/27 06:04:01;;;;;;;63.10;56.85;;;17.80;1.00;;;;;;5066978;28;20045;-61
2023/10/27 06:06:27;;;;;;;62.80;56.22;;;17.50;1.00;;;;;;5065680;28;20044;-62
2023/10/27 06:08:55;;;;;;;62.78;56.45;;;17.90;1.00;;;;;;5064225;28;20777;-62
2023/10/27 06:11:21;;;;;;;61.75;55.45;;;17.80;1.00;;;;;;5065520;28;20087;-62
2023/10/27 06:13:46;;;;;;;63.67;57.00;;;17.60;1.00;;;;;;5065120;28;20072;-61
2023/10/27 06:16:12;;;;;;;63.55;57.20;;;17.90;1.00;;;;;;5064784;28;20387;-60
2023/10/27 06:18:38;;;;;;;63.03;56.42;;;17.80;99.90;;;;;;5064737;28;20498;-61
2023/10/27 06:21:04;;;;;;;62.50;56.15;;;18.10;99.90;;;;;;5062663;28;20048;-62
2023/10/27 06:23:29;;;;;;;61.22;55.03;;;17.70;99.90;;;;;;5063226;28;20521;-61
2023/10/27 06:25:55;;;;;;;62.30;55.75;;;17.70;99.90;;;;;;5063259;28;20055;-62
2023/10/27 06:28:21;;;;;;;63.22;56.83;;;17.70;99.90;;;;;;5060627;28;20051;-62
2023/10/27 06:30:46;;;;;;;64.57;57.92;;;17.80;99.90;;;;;;5062184;28;20447;-62
2023/10/27 06:33:12;;;;;;;62.10;55.75;;;18.00;99.90;;;;;;5065985;28;20382;-60
2023/10/27 06:35:38;;;;;;;62.25;56.05;;;17.60;99.90;;;;;;5065049;28;20505;-60
2023/10/27 06:38:04;;;;;;;63.83;57.35;;;17.80;99.90;;;;;;5062058;28;20044;-61
2023/10/27 06:40:29;;;;;;;60.47;54.47;;;18.10;99.90;;;;;;5064914;28;20063;-61
2023/10/27 06:42:55;;;;;;;61.90;55.70;;;18.10;97.40;;;;;;5065693;28;20132;-61
2023/10/27 06:45:20;;;;;;;62.90;56.30;;;17.70;91.30;;;;;;5066829;28;20040;-60
2023/10/27 06:47:46;;;;;;;58.78;52.88;;;17.60;42.90;;;;;;5063099;28;20036;-61
2023/10/27 06:50:11;;;;;;;62.72;56.15;;;17.70;1.00;;;;;;5064735;28;20043;-62
2023/10/27 06:52:37;;;;;;;61.70;55.40;;;17.70;1.00;;;;;;5064008;28;20490;-62
2023/10/27 06:55:03;;;;;;;60.45;54.03;;;18.00;1.00;;;;;;5063708;28;20203;-61
2023/10/27 06:57:30;;;;;;;61.22;55.13;;;18.00;1.00;;;;;;5062424;28;20392;-61
2023/10/27 06:59:56;;;;;;;61.80;55.60;;;17.70;1.00;;;;;;5063783;28;20036;-60
2023/10/27 07:02:22;;;;;;;60.22;54.33;;;17.60;1.00;;;;;;5064562;28;20047;-60
2023/10/27 07:04:48;;;;;;;60.90;54.60;;;17.80;1.00;;;;;;5065408;28;20051;-61
2023/10/27 07:07:15;;;;;;;58.75;53.05;;;17.60;1.00;;;;;;5065206;28;20040;-61
2023/10/27 07:09:41;;;;;;;61.33;55.28;;;17.60;99.90;;;;;;5065058;28;20612;-65
2023/10/27 07:12:08;;;;;;;61.67;55.42;;;17.90;99.90;;;;;;5065333;28;20132;-67
2023/10/27 07:14:35;;;;;;;61.58;55.53;;;17.50;99.90;;;;;;5062030;28;20854;-67
2023/10/27 07:17:01;;;;;;;56.72;51.22;;;17.60;99.90;;;;;;5062031;28;20071;-67
2023/10/27 07:19:26;;;;;;;58.47;52.60;;;17.90;99.90;;;;;;5059675;28;20040;-66
2023/10/27 07:21:52;;;;;;;57.53;51.85;;;17.90;99.90;;;;;;5065050;28;22143;-67
2023/10/27 07:24:17;;;;;;;55.22;49.83;;;17.60;99.90;;;;;;5065089;28;20044;-66
2023/10/27 07:26:43;;;;;;;54.78;49.53;;;17.60;99.90;;;;;;5064074;28;20037;-67
2023/10/27 07:29:09;;;;;;;56.88;51.25;;;17.70;99.90;;;;;;5064043;28;20045;-67
2023/10/27 07:31:35;;;;;;;58.63;52.70;;;18.00;99.90;;;;;;5062857;28;20043;-66
2023/10/27 07:34:00;;;;;;;58.15;52.47;;;18.00;99.90;;;;;;5063344;28;20093;-67
2023/10/27 07:36:26;;;;;;;58.53;52.67;;;17.70;99.90;;;;;;5062444;28;20494;-66
2023/10/27 07:38:52;;;;;;;57.42;51.80;;;17.70;99.90;;;;;;5061640;28;20581;-67
2023/10/27 07:41:18;;;;;;;59.38;53.13;;;18.10;99.90;;;;;;5064177;28;20032;-67
2023/10/27 07:43:43;;;;;;;59.45;53.65;;;18.40;99.90;;;;;;5065973;28;20032;-66
2023/10/27 07:46:10;;;;;;;59.03;53.13;;;17.80;99.90;;;;;;5064461;28;20433;-67
2023/10/27 07:48:36;;;;;;;58.08;52.33;;;17.80;99.90;;;;;;5065365;28;20508;-67
2023/10/27 07:51:04;;;;;;;58.20;52.45;;;17.80;99.90;;;;;;5065528;28;20040;-66
2023/10/27 07:53:29;;;;;;;56.55;50.80;;;17.80;99.90;;;;;;5064113;28;20036;-67
2023/10/27 07:55:56;;;;;;;58.22;52.63;;;18.10;99.90;;;;;;5065488;28;20548;-67
2023/10/27 07:58:23;;;;;;;54.38;48.95;;;18.00;99.90;;;;;;5065718;28;20044;-66
2023/10/27 08:00:51;;;;;;;57.70;51.53;;;18.20;99.90;;;;;;5064483;28;20375;-66
2023/10/27 08:03:16;;;;;;;56.97;51.15;;;18.00;99.90;;;;;;5067738;28;20040;-66
2023/10/27 08:05:43;;;;;;;56.70;50.83;;;18.30;99.90;;;;;;5064442;28;20507;-67
2023/10/27 08:08:09;;;;;;;57.13;51.45;;;18.20;99.90;;;;;;5063137;28;20044;-65
2023/10/27 08:10:37;;;;;;;57.45;51.85;;;18.20;99.90;;;;;;5061237;28;20043;-67
2023/10/27 08:13:03;;;;;;;56.08;50.55;;;17.90;99.90;;;;;;5061384;28;20044;-67
2023/10/27 08:15:29;;;;;;;56.00;50.33;;;17.90;99.90;;;;;;5063218;28;20029;-65
2023/10/27 08:17:54;;;;;;;57.30;51.83;;;18.20;99.90;;;;;;5062938;28;20456;-66
2023/10/27 08:20:20;;;;;;;55.10;49.55;;;18.20;99.90;;;;;;5062513;28;20044;-62
2023/10/27 08:22:46;;;;;;;54.17;48.83;;;18.30;68.10;;;;;;5067789;28;20048;-60
2023/10/27 08:25:12;;;;;;;53.53;48.42;;;18.20;22.70;;;;;;5064902;28;20076;-61
2023/10/27 08:27:38;;;;;;;55.05;49.60;;;17.90;1.00;;;;;;5063822;28;20048;-61
2023/10/27 08:30:04;;;;;;;54.58;48.85;;;18.20;11.30;;;;;;5068484;28;20059;-61
2023/10/27 08:32:29;;;;;;;52.95;47.63;;;18.40;1.00;;;;;;5067921;28;20155;-60
2023/10/27 08:34:55;;;;;;;55.28;49.90;;;18.30;1.00;;;;;;5066555;28;20143;-61
2023/10/27 08:37:21;;;;;;;53.53;47.75;;;18.30;1.00;;;;;;5064584;28;20119;-61
2023/10/27 08:39:46;;;;;;;52.83;47.58;;;18.40;1.00;;;;;;5068127;28;20048;-61
2023/10/27 08:42:14;;;;;;;52.03;46.83;;;18.20;1.00;;;;;;5066516;28;20042;-62
2023/10/27 08:44:41;;;;;;;53.47;48.38;;;18.20;1.00;;;;;;5067003;28;20393;-61
2023/10/27 08:47:07;;;;;;;56.00;50.42;;;18.60;1.00;;;;;;5065056;28;20043;-61
2023/10/27 08:49:33;;;;;;;54.15;48.97;;;18.60;1.00;;;;;;5064449;28;20139;-61
2023/10/27 08:52:08;;;;;;;51.08;46.22;;;18.50;1.00;;;;;;5063312;28;20036;-62
2023/10/27 08:54:38;;;;;;;51.33;46.72;;;18.40;1.00;;;;;;5068112;28;20595;-62
2023/10/27 08:57:05;;;;;;;51.67;46.75;;;18.60;99.90;;;;;;5067377;28;20079;-62
2023/10/27 08:59:30;;;;;;;48.78;44.03;;;18.80;1.00;;;;;;5067997;28;20036;-62
2023/10/27 09:01:56;;;;;;;51.58;46.75;;;19.00;1.00;;;;;;5065709;28;20040;-62
2023/10/27 09:04:23;;;;;;;50.85;46.00;;;18.80;99.90;;;;;;5066934;28;20040;-61
2023/10/27 09:06:49;;;;;;;50.72;45.63;;;18.90;99.90;;;;;;5069692;28;20068;-62
2023/10/27 09:09:14;;;;;;;49.05;44.60;;;18.90;99.90;;;;;;5065601;28;20489;-61
2023/10/27 09:11:47;;;;;;;46.35;42.15;;;18.80;99.90;;;;;;5068415;28;20032;-64
2023/10/27 09:14:18;;;;;;;50.05;45.15;;;18.80;31.10;;;;;;5066245;28;20097;-62
2023/10/27 09:16:44;;;;;;;48.90;44.42;;;18.80;1.00;;;;;;5063020;28;20148;-61
2023/10/27 09:19:26;;;;;;;45.75;41.75;;;19.00;1.00;;;;;;5066980;28;20088;-61
2023/10/27 09:21:53;;;;;;;45.45;41.42;;;18.90;99.90;;;;;;5065213;28;20040;-61
2023/10/27 09:24:24;;;;;;;46.92;42.72;;;19.00;99.90;;;;;;5067966;28;20608;-61
2023/10/27 09:26:50;;;;;;;47.50;43.10;;;19.30;99.90;;;;;;5065183;28;20049;-61
2023/10/27 09:29:16;;;;;;;47.45;43.15;;;19.00;99.90;;;;;;5066340;28;20055;-61
2023/10/27 09:31:43;;;;;;;48.60;44.10;;;18.80;71.30;;;;;;5064509;28;20048;-62
2023/10/27 09:34:24;;;;;;;46.50;42.28;;;19.10;30.10;;;;;;5068175;28;20107;-62
2023/10/27 09:36:55;;;;;;;46.35;42.15;;;19.00;1.00;;;;;;5065161;28;20071;-62
2023/10/27 09:39:24;;;;;;;47.38;42.60;;;19.00;1.00;;;;;;5065952;28;20504;-61
2023/10/27 09:42:04;;;;;;;46.25;41.95;;;19.00;1.00;;;;;;5063961;28;20044;-62
2023/10/27 09:44:40;;;;;;;47.17;42.90;;;18.70;99.90;;;;;;5064469;28;20696;-62
2023/10/27 09:47:14;;;;;;;47.40;43.08;;;18.90;99.90;;;;;;5066207;28;20126;-62
2023/10/27 09:49:41;;;;;;;48.42;43.40;;;19.00;99.90;;;;;;5066426;28;20036;-62
2023/10/27 09:52:11;;;;;;;48.42;44.03;;;19.00;99.90;;;;;;5067000;28;20433;-62
2023/10/27 09:54:39;;;;;;;49.13;44.55;;;18.80;99.90;;;;;;5066358;28;20155;-63
2023/10/27 09:57:05;;;;;;;48.47;43.90;;;18.80;99.90;;;;;;5063371;28;20044;-62
2023/10/27 09:59:31;;;;;;;49.40;44.85;;;19.00;99.90;;;;;;5067322;28;20044;-63
2023/10/27 10:02:00;;;;;;;45.72;41.53;;;18.80;99.90;;;;;;5064657;28;20525;-62
2023/10/27 10:04:50;;;;;;;48.72;44.25;;;19.00;99.90;;;;;;5067026;28;20044;-62
2023/10/27 10:07:35;;;;;;;50.95;46.25;;;18.80;99.90;;;;;;5062344;28;20051;-63
2023/10/27 10:10:19;;;;;;;48.33;43.85;;;19.00;99.90;;;;;;5063881;28;20155;-62
2023/10/27 10:13:06;;;;;;;51.05;46.25;;;18.80;99.90;;;;;;5062315;28;20174;-62
2023/10/27 10:15:33;;;;;;;50.70;45.90;;;19.10;99.90;;;;;;5064655;28;20044;-62
2023/10/27 10:18:06;;;;;;;49.85;45.22;;;18.90;99.90;;;;;;5063913;28;20676;-62
2023/10/27 10:20:58;;;;;;;50.45;45.85;;;18.90;99.90;;;;;;5065593;28;20502;-62
2023/10/27 10:23:47;;;;;;;49.83;45.20;;;18.90;88.00;;;;;;5053478;28;20575;-62
2023/10/27 10:26:13;;;;;;;50.38;45.67;;;19.10;73.50;;;;;;5066644;28;20084;-63
2023/10/27 10:28:41;;;;;;;50.63;46.03;;;19.10;36.90;;;;;;5068113;28;20447;-62
2023/10/27 10:31:06;;;;;;;50.83;45.95;;;18.90;20.60;;;;;;5062929;28;20077;-62
2023/10/27 10:33:32;;;;;;;51.35;46.75;;;19.40;8.20;;;;;;5067489;28;20090;-63
2023/10/27 10:36:22;;;;;;;51.58;46.83;;;19.10;1.00;;;;;;5064208;28;20044;-63
2023/10/27 10:38:53;;;;;;;51.15;46.40;;;19.00;1.00;;;;;;5062674;28;20055;-62
2023/10/27 10:41:19;;;;;;;50.65;46.03;;;19.00;1.00;;;;;;5065028;28;20075;-61
2023/10/27 10:43:45;;;;;;;52.58;47.78;;;19.10;1.00;;;;;;5068006;28;20036;-61
2023/10/27 10:46:13;;;;;;;50.83;46.10;;;19.20;1.00;;;;;;5065337;28;20040;-62
2023/10/27 10:48:45;;;;;;;51.10;46.40;;;19.00;1.00;;;;;;5066461;28;20101;-62
2023/10/27 10:51:18;;;;;;;50.90;46.30;;;19.20;1.00;;;;;;5063951;28;20032;-62
2023/10/27 10:53:50;;;;;;;51.80;46.88;;;19.30;1.00;;;;;;5062759;28;20505;-61
2023/10/27 10:56:16;;;;;;;50.25;45.45;;;19.20;1.00;;;;;;5064859;28;20032;-61
2023/10/27 10:58:42;;;;;;;52.60;47.70;;;19.20;1.00;;;;;;5063997;28;20044;-62
2023/10/27 11:01:19;;;;;;;52.05;46.88;;;19.20;1.00;;;;;;5063494;28;20051;-61
2023/10/27 11:03:50;;;;;;;51.67;46.88;;;19.10;1.00;;;;;;5066762;28;20040;-61
2023/10/27 11:06:19;;;;;;;50.78;46.08;;;19.10;1.00;;;;;;5064167;28;20108;-62
2023/10/27 11:08:45;;;;;;;54.45;49.38;;;19.10;1.00;;;;;;5063859;28;20064;-65
2023/10/27 11:11:16;;;;;;;51.35;46.65;;;19.20;1.00;;;;;;5064477;28;20045;-62
2023/10/27 11:13:51;;;;;;;52.30;47.30;;;19.20;99.90;;;;;;5064385;28;20414;-62
2023/10/27 11:16:22;;;;;;;53.03;48.03;;;19.20;99.90;;;;;;5063758;28;20162;-62
2023/10/27 11:18:59;;;;;;;53.60;48.55;;;19.10;99.90;;;;;;5066696;28;20138;-61
2023/10/27 11:21:29;;;;;;;54.47;49.28;;;19.20;99.90;;;;;;5063665;28;20123;-61
2023/10/27 11:23:56;;;;;;;54.38;49.47;;;19.30;99.90;;;;;;5064608;28;20147;-60
2023/10/27 11:26:26;;;;;;;53.17;48.30;;;19.20;99.90;;;;;;5065033;28;20414;-60
2023/10/27 11:28:55;;;;;;;51.97;47.17;;;19.60;99.90;;;;;;5065145;28;20090;-61
2023/10/27 11:31:29;;;;;;;55.15;49.75;;;19.30;99.90;;;;;;5065388;28;20036;-61
2023/10/27 11:34:05;;;;;;;54.08;48.95;;;19.30;99.90;;;;;;5066589;28;20756;-62
2023/10/27 11:36:44;;;;;;;54.08;49.10;;;20.20;99.90;;;;;;5059670;28;20068;-61
2023/10/27 11:39:17;;;;;;;52.17;47.33;;;19.30;99.90;;;;;;5064467;28;20437;-61
2023/10/27 11:41:46;;;;;;;53.22;48.35;;;19.30;99.90;;;;;;5064278;28;20032;-63
2023/10/27 11:44:11;;;;;;;53.15;48.15;;;19.20;99.90;;;;;;5064111;28;20563;-62
2023/10/27 11:46:37;;;;;;;53.28;48.28;;;19.20;99.90;;;;;;5063180;28;20044;-61
2023/10/27 11:49:03;;;;;;;53.40;48.53;;;19.40;99.90;;;;;;5064841;28;20497;-66
2023/10/27 11:51:29;;;;;;;53.30;48.40;;;19.40;99.90;;;;;;5068122;28;20105;-67
2023/10/27 11:53:55;;;;;;;52.30;47.50;;;19.40;99.90;;;;;;5068905;28;20093;-67
2023/10/27 11:56:21;;;;;;;52.40;47.50;;;19.20;99.90;;;;;;5084666;28;20044;-67
2023/10/27 11:58:46;;;;;;;53.05;47.95;;;19.30;99.90;;;;;;5069200;28;20498;-67
2023/10/27 12:01:12;;;;;;;51.90;47.10;;;19.20;99.90;;;;;;5068673;28;20040;-67
2023/10/27 12:03:38;;;;;;;52.25;47.38;;;19.20;99.90;;;;;;5069319;28;20505;-67
2023/10/27 12:06:04;;;;;;;53.55;48.45;;;19.10;99.90;;;;;;5069875;28;20557;-67
2023/10/27 12:08:29;;;;;;;54.63;49.58;;;19.20;99.90;;;;;;5069602;28;20072;-66
2023/10/27 12:10:55;;;;;;;54.40;49.30;;;19.10;99.90;;;;;;5070038;28;20044;-67
2023/10/27 12:13:21;;;;;;;52.17;47.40;;;19.10;99.90;;;;;;5069770;28;20094;-67
2023/10/27 12:15:47;;;;;;;49.95;45.28;;;19.10;99.90;;;;;;5067126;28;20054;-66
2023/10/27 12:18:14;;;;;;;55.42;49.92;;;19.20;99.90;;;;;;5068685;28;20032;-67
2023/10/27 12:20:40;;;;;;;55.45;50.05;;;19.00;99.90;;;;;;5064428;28;20056;-67
2023/10/27 12:23:07;;;;;;;55.35;49.97;;;19.90;99.90;;;;;;5065333;28;20068;-67
2023/10/27 12:25:33;;;;;;;56.55;51.00;;;19.10;99.90;;;;;;5074030;28;20580;-66
2023/10/27 12:27:59;;;;;;;58.47;52.67;;;19.10;99.90;;;;;;5069061;28;20044;-66
2023/10/27 12:30:26;;;;;;;58.33;52.63;;;19.00;99.90;;;;;;5067696;28;20564;-67